Watertown, Wisconsin
Current Conditions -  °F | °C
As of 6:15 AM on Sunday 23 Nov 2014 (Local Time) from KRYV Reporting Station
Haze Haze  
Wind Chill: 43°   Ceiling: 300
Heat Index: 47°   Visibility: 3mi
Dew Point: 47°   Wind: 10mph
Humidity: 100%   Direction: 180°S
Pressure: 29.66"   Gusts: NA
Location:  43.2°N, 88.72°W
Report Text: KRYV 231215Z AUTO 18009KT 3SM BR OVC003 09/09 A2966 RMK AO2 T00850085
Loading
Personal Weather Stations






























Interactive Weather Map New forecast layout! Learn more

10-Day Weather Forecast

Advertisements
Track Severe Weather on mobile